createdAt,value
2018-05-09T00:00:32.558Z,49.11
2018-05-09T00:02:58.694Z,49.67
2018-05-09T00:05:30.872Z,50.40
2018-05-09T00:07:56.812Z,50.57
2018-05-09T00:10:22.737Z,51.02
2018-05-09T00:12:48.688Z,51.29
2018-05-09T00:15:17.942Z,51.31
2018-05-09T00:17:43.870Z,51.33
2018-05-09T00:20:11.149Z,51.37
2018-05-09T00:22:37.095Z,51.25
2018-05-09T00:25:03.061Z,51.39
2018-05-09T00:27:30.191Z,51.31
2018-05-09T00:29:56.090Z,51.49
2018-05-09T00:32:23.322Z,51.80
2018-05-09T00:34:49.319Z,51.64
2018-05-09T00:37:18.636Z,51.60
2018-05-09T00:39:44.579Z,52.01
2018-05-09T00:42:12.241Z,52.09
2018-05-09T00:44:38.167Z,52.10
2018-05-09T00:47:07.205Z,52.12
2018-05-09T00:49:33.166Z,51.99
2018-05-09T00:52:02.545Z,52.54
2018-05-09T00:54:33.476Z,52.63
2018-05-09T00:56:59.487Z,52.66
2018-05-09T00:59:25.440Z,52.90
2018-05-09T01:01:51.404Z,53.04
2018-05-09T01:04:17.340Z,52.89
2018-05-09T01:06:43.387Z,52.74
2018-05-09T01:09:09.328Z,52.68
2018-05-09T01:11:35.297Z,53.34
2018-05-09T01:14:02.937Z,53.25
2018-05-09T01:16:28.867Z,53.34
2018-05-09T01:18:58.574Z,53.33
2018-05-09T01:21:24.544Z,53.54
2018-05-09T01:23:53.693Z,53.76
2018-05-09T01:26:19.681Z,53.72
2018-05-09T01:28:47.392Z,54.23
2018-05-09T01:31:13.286Z,54.39
2018-05-09T01:33:42.444Z,54.08
2018-05-09T01:36:08.364Z,53.98
2018-05-09T01:38:34.320Z,54.14
2018-05-09T01:41:00.263Z,54.27
2018-05-09T01:43:26.170Z,53.98
2018-05-09T01:45:53.900Z,54.11
2018-05-09T01:48:19.840Z,54.44
2018-05-09T01:50:49.069Z,54.35
2018-05-09T01:53:15.012Z,54.88
2018-05-09T01:55:42.625Z,55.10
2018-05-09T01:58:08.567Z,55.07
2018-05-09T02:00:37.971Z,55.17
2018-05-09T02:03:03.949Z,55.29
2018-05-09T02:05:33.261Z,55.38
2018-05-09T02:07:59.199Z,55.86
2018-05-09T02:10:27.170Z,55.97
2018-05-09T02:12:53.121Z,55.96
2018-05-09T02:15:19.086Z,56.07
2018-05-09T02:17:45.046Z,55.99
2018-05-09T02:20:10.977Z,56.09
2018-05-09T02:22:38.626Z,56.30
2018-05-09T02:25:04.606Z,56.44
2018-05-09T02:27:33.477Z,56.63
2018-05-09T02:29:59.391Z,56.63
2018-05-09T02:32:28.894Z,56.76
2018-05-09T02:34:54.808Z,56.51
2018-05-09T02:37:24.188Z,56.59
2018-05-09T02:39:50.136Z,56.42
2018-05-09T02:42:17.507Z,56.89
2018-05-09T02:44:43.425Z,56.76
2018-05-09T02:47:13.273Z,56.53
2018-05-09T02:49:39.215Z,56.37
2018-05-09T02:52:05.140Z,56.44
2018-05-09T02:54:31.093Z,56.89
2018-05-09T02:56:57.009Z,56.97
2018-05-09T02:59:23.970Z,57.43
2018-05-09T03:01:49.952Z,57.61
2018-05-09T03:04:19.617Z,57.74
2018-05-09T03:06:45.571Z,57.74
2018-05-09T03:09:13.324Z,57.57
2018-05-09T03:11:39.233Z,57.59
2018-05-09T03:14:08.611Z,57.70
2018-05-09T03:16:34.552Z,57.71
2018-05-09T03:19:04.238Z,57.86
2018-05-09T03:21:30.187Z,57.84
2018-05-09T03:23:57.760Z,57.54
2018-05-09T03:26:23.731Z,57.99
2018-05-09T03:28:49.618Z,58.32
2018-05-09T03:31:15.589Z,58.33
2018-05-09T03:33:41.492Z,58.51
2018-05-09T03:36:10.856Z,58.24
2018-05-09T03:38:36.787Z,58.39
2018-05-09T03:41:03.663Z,58.43
2018-05-09T03:43:29.620Z,58.17
2018-05-09T03:45:58.520Z,58.19
2018-05-09T03:48:24.466Z,58.76
2018-05-09T03:50:54.136Z,60.17
2018-05-09T03:53:20.170Z,60.03
2018-05-09T03:55:49.119Z,60.19
2018-05-09T03:58:15.079Z,59.92
2018-05-09T04:00:44.346Z,59.55
2018-05-09T04:03:22.662Z,59.81
2018-05-09T04:06:00.742Z,59.57
2018-05-09T04:11:21.621Z,60.30
2018-05-09T04:13:47.568Z,60.37
2018-05-09T04:16:13.528Z,60.09
2018-05-09T04:18:39.446Z,60.71
2018-05-09T04:21:05.392Z,60.70
2018-05-09T04:23:31.319Z,60.80
2018-05-09T04:25:57.234Z,60.64
2018-05-09T04:28:23.166Z,60.35
2018-05-09T04:30:49.177Z,60.42
2018-05-09T04:33:15.079Z,60.57
2018-05-09T04:35:41.023Z,60.78
2018-05-09T04:38:06.966Z,60.74
2018-05-09T04:40:32.886Z,60.91
2018-05-09T04:42:58.808Z,60.79
2018-05-09T04:45:24.760Z,60.78
2018-05-09T04:47:50.683Z,60.70
2018-05-09T04:50:16.747Z,60.93
2018-05-09T04:52:44.584Z,61.32
2018-05-09T04:55:10.520Z,60.97
2018-05-09T04:57:36.459Z,60.01
2018-05-09T05:00:02.361Z,58.39
2018-05-09T05:02:28.288Z,58.25
2018-05-09T05:04:54.229Z,59.44
2018-05-09T05:07:20.152Z,60.43
2018-05-09T05:09:46.087Z,60.54
2018-05-09T05:12:12.012Z,59.99
2018-05-09T05:14:44.873Z,58.83
2018-05-09T05:17:10.849Z,58.58
2018-05-09T05:19:36.729Z,57.76
2018-05-09T05:22:02.660Z,58.20
2018-05-09T05:26:47.026Z,57.98
2018-05-09T05:29:13.008Z,57.67
2018-05-09T05:31:38.980Z,57.67
2018-05-09T05:34:04.912Z,57.17
2018-05-09T05:36:30.857Z,57.07
2018-05-09T05:38:56.761Z,56.98
2018-05-09T05:41:22.673Z,56.77
2018-05-09T05:43:48.664Z,55.88
2018-05-09T05:46:15.383Z,56.18
2018-05-09T05:48:41.325Z,56.27
2018-05-09T05:51:07.258Z,56.09
2018-05-09T05:53:33.154Z,55.20
2018-05-09T05:55:59.139Z,56.03
2018-05-09T05:58:25.068Z,55.82
2018-05-09T06:00:51.015Z,55.07
2018-05-09T06:03:16.953Z,55.87
2018-05-09T06:05:42.868Z,54.73
2018-05-09T06:08:08.795Z,53.56
2018-05-09T06:10:34.733Z,53.43
2018-05-09T06:13:00.654Z,54.09
2018-05-09T06:15:26.569Z,54.15
2018-05-09T06:17:55.944Z,53.86
2018-05-09T06:20:21.848Z,53.79
2018-05-09T06:22:50.911Z,53.84
2018-05-09T06:25:16.819Z,53.53
2018-05-09T06:27:44.669Z,53.03
2018-05-09T06:30:10.599Z,53.19
2018-05-09T06:32:36.478Z,52.55
2018-05-09T06:35:02.396Z,53.28
2018-05-09T06:37:28.328Z,53.77
2018-05-09T06:39:56.252Z,53.63
2018-05-09T06:42:22.170Z,53.41
2018-05-09T06:44:51.950Z,52.68
2018-05-09T06:47:17.874Z,51.84
2018-05-09T06:49:46.954Z,52.67
2018-05-09T06:52:12.880Z,52.54
2018-05-09T06:54:39.948Z,52.10
2018-05-09T06:57:05.855Z,51.68
2018-05-09T06:59:35.074Z,50.62
2018-05-09T07:02:01.069Z,50.02
2018-05-09T07:04:30.611Z,49.08
2018-05-09T07:06:56.561Z,48.24
2018-05-09T07:09:22.534Z,47.58
2018-05-09T07:11:48.504Z,46.00
2018-05-09T07:14:14.472Z,46.33
2018-05-09T07:16:41.875Z,45.84
2018-05-09T07:19:07.764Z,45.23
2018-05-09T07:21:35.575Z,45.21
2018-05-09T07:24:01.544Z,44.14
2018-05-09T07:26:30.441Z,42.74
2018-05-09T07:28:56.396Z,42.53
2018-05-09T07:31:26.149Z,42.63
2018-05-09T07:33:52.100Z,41.90
2018-05-09T07:36:21.556Z,40.66
2018-05-09T07:38:47.456Z,42.58
2018-05-09T07:41:14.503Z,42.84
2018-05-09T07:43:40.477Z,43.12
2018-05-09T07:46:06.432Z,44.34
2018-05-09T07:48:32.400Z,42.10
2018-05-09T07:50:58.319Z,41.40
2018-05-09T07:53:27.990Z,41.10
2018-05-09T07:55:53.959Z,39.84
2018-05-09T07:58:20.912Z,41.26
2018-05-09T08:00:46.847Z,42.08
2018-05-09T08:03:15.367Z,42.57
2018-05-09T08:05:41.345Z,43.52
2018-05-09T08:10:38.447Z,42.73
2018-05-09T08:13:05.630Z,40.54
2018-05-09T08:15:31.571Z,41.39
2018-05-09T08:18:01.236Z,42.03
2018-05-09T08:20:27.162Z,41.02
2018-05-09T08:22:53.091Z,41.76
2018-05-09T08:25:19.178Z,39.69
2018-05-09T08:27:45.175Z,39.60
2018-05-09T08:30:12.286Z,41.13
2018-05-09T08:32:38.245Z,39.90
2018-05-09T08:35:07.188Z,39.99
2018-05-09T08:37:33.135Z,39.38
2018-05-09T08:40:02.308Z,39.19
2018-05-09T08:42:28.277Z,37.33
2018-05-09T08:44:55.955Z,37.03
2018-05-09T08:47:21.875Z,35.51
2018-05-09T08:49:51.661Z,34.77
2018-05-09T08:52:17.613Z,34.20
2018-05-09T08:54:45.394Z,34.83
2018-05-09T08:57:11.373Z,35.30
2018-05-09T08:59:37.292Z,36.43
2018-05-09T09:02:03.256Z,34.78
2018-05-09T09:04:29.313Z,35.91
2018-05-09T09:06:56.851Z,33.98
2018-05-09T09:09:22.749Z,34.47
2018-05-09T09:11:51.664Z,32.62
2018-05-09T09:14:17.568Z,29.97
2018-05-09T09:16:46.345Z,32.70
2018-05-09T09:19:12.319Z,33.65
2018-05-09T09:21:41.095Z,33.60
2018-05-09T09:24:07.011Z,32.82
2018-05-09T09:26:36.844Z,34.05
2018-05-09T09:29:02.921Z,34.69
2018-05-09T09:31:30.675Z,34.44
2018-05-09T09:33:56.637Z,35.52
2018-05-09T09:36:22.611Z,35.83
2018-05-09T09:38:48.556Z,36.78
2018-05-09T09:41:14.580Z,34.86
2018-05-09T09:43:42.343Z,35.32
2018-05-09T09:46:08.297Z,34.84
2018-05-09T09:48:37.265Z,34.86
2018-05-09T09:51:03.252Z,34.88
2018-05-09T09:53:32.174Z,33.69
2018-05-09T09:55:58.072Z,33.29
2018-05-09T09:58:27.373Z,33.60
2018-05-09T10:00:53.311Z,33.99
2018-05-09T10:03:21.259Z,34.48
2018-05-09T10:05:47.176Z,32.87
2018-05-09T10:08:16.208Z,34.81
2018-05-09T10:10:43.012Z,35.10
2018-05-09T10:13:08.928Z,32.69
2018-05-09T10:15:34.895Z,33.10
2018-05-09T10:18:00.828Z,31.68
2018-05-09T10:20:28.389Z,30.92
2018-05-09T10:22:54.297Z,30.64
2018-05-09T10:25:23.884Z,32.13
2018-05-09T10:27:49.890Z,32.93
2018-05-09T10:30:17.767Z,33.79
2018-05-09T10:32:43.761Z,32.35
2018-05-09T10:35:13.565Z,31.42
2018-05-09T10:37:39.500Z,31.69
2018-05-09T10:40:07.218Z,30.12
2018-05-09T10:42:33.133Z,30.16
2018-05-09T10:45:01.118Z,29.22
2018-05-09T10:47:27.132Z,30.18
2018-05-09T10:49:53.108Z,29.37
2018-05-09T10:52:19.107Z,29.75
2018-05-09T10:54:45.045Z,28.72
2018-05-09T10:57:14.379Z,29.62
2018-05-09T10:59:40.324Z,28.66
2018-05-09T11:02:08.122Z,29.78
2018-05-09T11:04:34.733Z,28.83
2018-05-09T11:07:03.923Z,29.67
2018-05-09T11:09:29.846Z,29.71
2018-05-09T11:11:57.692Z,29.03
2018-05-09T11:14:23.663Z,30.01
2018-05-09T11:16:53.528Z,31.34
2018-05-09T11:19:19.490Z,30.04
2018-05-09T11:21:47.012Z,29.39
2018-05-09T11:24:12.962Z,29.44
2018-05-09T11:26:38.908Z,30.38
2018-05-09T11:29:04.838Z,30.37
2018-05-09T11:31:30.747Z,30.87
2018-05-09T11:34:00.040Z,30.97
2018-05-09T11:36:26.014Z,30.85
2018-05-09T11:38:52.892Z,30.33
2018-05-09T11:41:18.912Z,30.22
2018-05-09T11:43:47.378Z,29.95
2018-05-09T11:46:13.257Z,29.49
2018-05-09T11:48:42.272Z,30.67
2018-05-09T11:51:08.211Z,30.59
2018-05-09T11:53:37.044Z,28.73
2018-05-09T11:56:03.002Z,28.53
2018-05-09T11:58:32.496Z,29.99
2018-05-09T12:00:58.481Z,30.39
2018-05-09T12:03:24.437Z,30.97
2018-05-09T12:05:50.398Z,31.33
2018-05-09T12:08:16.351Z,29.84
2018-05-09T12:10:44.213Z,29.12
2018-05-09T12:13:10.183Z,28.94
2018-05-09T12:15:39.852Z,26.36
2018-05-09T12:18:05.842Z,28.03
2018-05-09T12:20:34.111Z,26.22
2018-05-09T12:23:00.067Z,25.88
2018-05-09T12:25:29.546Z,27.77
2018-05-09T12:27:55.490Z,27.25
2018-05-09T12:30:22.405Z,27.23
2018-05-09T12:32:48.345Z,28.68
2018-05-09T12:35:17.992Z,30.99
2018-05-09T12:37:43.925Z,30.75
2018-05-09T12:40:09.889Z,29.48
2018-05-09T12:42:35.822Z,27.27
2018-05-09T12:45:01.893Z,26.84
2018-05-09T12:47:29.720Z,25.06
2018-05-09T12:49:55.691Z,26.32
2018-05-09T12:52:23.614Z,26.31
2018-05-09T12:54:49.532Z,26.46
2018-05-09T12:57:19.351Z,26.19
2018-05-09T12:59:45.307Z,25.60
2018-05-09T13:02:13.287Z,25.52
2018-05-09T13:04:39.222Z,24.69
2018-05-09T13:07:08.480Z,24.97
2018-05-09T13:09:34.577Z,25.19
2018-05-09T13:12:03.135Z,25.70
2018-05-09T13:14:29.106Z,24.64
2018-05-09T13:16:55.064Z,25.40
2018-05-09T13:19:21.144Z,24.53
2018-05-09T13:21:47.119Z,25.58
2018-05-09T13:24:14.397Z,26.36
2018-05-09T13:26:40.456Z,26.67
2018-05-09T13:29:08.781Z,27.73
2018-05-09T13:31:34.753Z,28.51
2018-05-09T13:34:03.929Z,28.21
2018-05-09T13:36:29.851Z,27.62
2018-05-09T13:38:59.750Z,27.22
2018-05-09T13:41:25.711Z,26.28
2018-05-09T13:43:53.524Z,26.02
2018-05-09T13:46:19.521Z,24.74
2018-05-09T13:48:49.442Z,26.60
2018-05-09T13:51:15.460Z,27.39
2018-05-09T13:53:41.392Z,29.20
2018-05-09T13:56:07.364Z,29.30
2018-05-09T13:58:33.298Z,29.55
2018-05-09T14:01:00.083Z,29.23
2018-05-09T14:03:26.162Z,26.97
2018-05-09T14:05:55.891Z,25.95
2018-05-09T14:08:21.896Z,27.59
2018-05-09T14:10:49.634Z,28.16
2018-05-09T14:13:15.606Z,27.53
2018-05-09T14:15:44.699Z,27.65
2018-05-09T14:18:10.756Z,25.75
2018-05-09T14:20:38.566Z,25.45
2018-05-09T14:23:04.500Z,23.66
2018-05-09T14:25:33.375Z,23.15
2018-05-09T14:27:59.287Z,24.18
2018-05-09T14:30:25.234Z,24.57
2018-05-09T14:32:51.939Z,25.58
2018-05-09T14:35:18.002Z,26.50
2018-05-09T14:37:46.051Z,27.25
2018-05-09T14:40:12.288Z,25.08
2018-05-09T14:42:41.322Z,26.29
2018-05-09T14:45:07.338Z,27.68
2018-05-09T14:47:35.037Z,27.43
2018-05-09T14:50:00.976Z,27.52
2018-05-09T14:52:30.587Z,27.85
2018-05-09T14:54:56.651Z,28.44
2018-05-09T14:57:24.356Z,29.58
2018-05-09T14:59:50.336Z,29.80
2018-05-09T15:02:20.161Z,29.78
2018-05-09T15:04:46.106Z,28.36
2018-05-09T15:07:12.062Z,28.02
2018-05-09T15:09:38.034Z,27.72
2018-05-09T15:12:04.000Z,28.32
2018-05-09T15:14:30.070Z,28.27
2018-05-09T15:16:56.070Z,27.32
2018-05-09T15:19:25.924Z,27.25
2018-05-09T15:21:51.858Z,27.19
2018-05-09T15:24:21.061Z,26.71
2018-05-09T15:26:47.004Z,26.56
2018-05-09T15:29:14.684Z,26.65
2018-05-09T15:31:40.578Z,27.34
2018-05-09T15:34:10.440Z,27.35
2018-05-09T15:36:36.389Z,27.59
2018-05-09T15:39:04.429Z,26.40
2018-05-09T15:41:30.271Z,25.75
2018-05-09T15:43:56.217Z,26.26
2018-05-09T15:46:22.168Z,26.21
2018-05-09T15:48:48.114Z,26.12
2018-05-09T15:51:15.911Z,26.20
2018-05-09T15:53:41.879Z,25.61
2018-05-09T15:56:11.807Z,25.34
2018-05-09T15:58:37.759Z,25.96
2018-05-09T16:01:05.684Z,25.30
2018-05-09T16:03:31.632Z,25.93
2018-05-09T16:05:59.547Z,26.59
2018-05-09T16:08:25.508Z,25.94
2018-05-09T16:10:55.364Z,25.61
2018-05-09T16:13:21.345Z,25.57
2018-05-09T16:15:49.134Z,25.68
2018-05-09T16:18:15.089Z,25.16
2018-05-09T16:20:41.075Z,26.14
2018-05-09T16:23:07.009Z,27.50
2018-05-09T16:25:33.013Z,27.60
2018-05-09T16:28:02.494Z,27.19
2018-05-09T16:30:28.444Z,27.73
2018-05-09T16:32:56.221Z,27.17
2018-05-09T16:35:22.172Z,27.79
2018-05-09T16:37:58.140Z,27.87
2018-05-09T16:40:24.184Z,28.19
2018-05-09T16:42:50.137Z,28.01
2018-05-09T16:45:16.083Z,27.44
2018-05-09T16:47:42.073Z,27.66
2018-05-09T16:50:08.030Z,27.67
2018-05-09T16:52:34.363Z,27.56
2018-05-09T16:55:00.360Z,28.26
2018-05-09T16:57:26.461Z,29.01
2018-05-09T16:59:52.405Z,28.99
2018-05-09T17:02:18.315Z,29.33
2018-05-09T17:04:46.208Z,29.26
2018-05-09T17:07:12.177Z,29.58
2018-05-09T17:09:40.972Z,30.29
2018-05-09T17:12:06.963Z,29.60
2018-05-09T17:14:35.780Z,30.33
2018-05-09T17:17:01.755Z,30.46
2018-05-09T17:19:30.533Z,30.74
2018-05-09T17:22:14.831Z,31.58
2018-05-09T17:24:40.869Z,30.96
2018-05-09T17:27:06.809Z,31.18
2018-05-09T17:29:32.756Z,31.73
2018-05-09T17:31:58.937Z,31.45
2018-05-09T17:34:24.862Z,31.03
2018-05-09T17:36:50.841Z,30.99
2018-05-09T17:39:16.808Z,30.58
2018-05-09T17:41:42.792Z,30.62
2018-05-09T17:44:08.757Z,31.22
2018-05-09T17:46:34.716Z,30.85
2018-05-09T17:49:00.704Z,30.73
2018-05-09T17:51:26.638Z,31.20
2018-05-09T17:53:52.556Z,31.47
2018-05-09T17:56:18.480Z,31.77
2018-05-09T17:58:44.580Z,30.54
2018-05-09T18:01:10.504Z,31.01
2018-05-09T18:03:36.397Z,31.72
2018-05-09T18:06:05.677Z,32.13
2018-05-09T18:08:31.587Z,32.38
2018-05-09T18:10:57.504Z,33.26
2018-05-09T18:13:23.445Z,31.81
2018-05-09T18:15:49.390Z,32.99
2018-05-09T18:18:17.081Z,32.88
2018-05-09T18:20:44.520Z,33.10
2018-05-09T18:23:11.770Z,33.42
2018-05-09T18:25:37.724Z,33.81
2018-05-09T18:28:07.501Z,34.23
2018-05-09T18:30:33.412Z,34.57
2018-05-09T18:33:01.284Z,35.17
2018-05-09T18:35:27.190Z,36.23
2018-05-09T18:37:56.915Z,36.78
2018-05-09T18:40:22.843Z,36.45
2018-05-09T18:42:52.753Z,35.64
2018-05-09T18:45:18.756Z,35.83
2018-05-09T18:47:44.684Z,36.77
2018-05-09T18:50:10.747Z,37.14
2018-05-09T18:52:36.677Z,38.20
2018-05-09T18:55:02.632Z,38.65
2018-05-09T18:57:28.595Z,39.06
2018-05-09T18:59:57.569Z,39.51
2018-05-09T19:02:23.555Z,39.51
2018-05-09T19:04:52.528Z,39.76
2018-05-09T19:07:18.511Z,39.99
2018-05-09T19:09:46.008Z,39.93
2018-05-09T19:12:11.959Z,40.30
2018-05-09T19:14:41.444Z,40.24
2018-05-09T19:17:07.449Z,40.80
2018-05-09T19:19:36.783Z,41.59
2018-05-09T19:22:02.760Z,41.92
2018-05-09T19:24:28.748Z,42.51
2018-05-09T19:26:54.858Z,42.70
2018-05-09T19:29:20.836Z,43.46
2018-05-09T19:31:47.937Z,43.99
2018-05-09T19:34:13.960Z,43.99
2018-05-09T19:36:43.767Z,44.06
2018-05-09T19:39:09.707Z,43.08
2018-05-09T19:41:37.381Z,43.49
2018-05-09T19:44:03.285Z,43.95
2018-05-09T19:46:33.237Z,44.13
2018-05-09T19:48:59.167Z,44.57
2018-05-09T19:51:26.132Z,44.81
2018-05-09T19:53:52.107Z,44.38
2018-05-09T19:56:21.654Z,45.21
2018-05-09T19:58:47.554Z,45.10
2018-05-09T20:01:13.557Z,45.03
2018-05-09T20:03:39.522Z,45.47
2018-05-09T20:06:05.542Z,45.84
2018-05-09T20:08:32.769Z,45.63
2018-05-09T20:10:58.714Z,45.63
2018-05-09T20:13:27.491Z,46.05
2018-05-09T20:15:53.526Z,46.32
2018-05-09T20:18:23.000Z,46.13
2018-05-09T20:20:48.927Z,45.99
2018-05-09T20:23:18.613Z,45.59
2018-05-09T20:25:44.607Z,46.04
2018-05-09T20:28:11.480Z,46.86
2018-05-09T20:30:43.531Z,47.48
2018-05-09T20:33:09.485Z,47.80
2018-05-09T20:35:35.468Z,48.02
2018-05-09T20:38:01.430Z,48.41
2018-05-09T20:40:27.347Z,48.60
2018-05-09T20:42:53.341Z,48.65
2018-05-09T20:45:19.321Z,49.05
2018-05-09T20:47:45.297Z,49.31
2018-05-09T20:50:12.619Z,49.88
2018-05-09T20:52:38.617Z,50.12
2018-05-09T20:57:58.194Z,50.14
2018-05-09T21:00:24.180Z,49.98
2018-05-09T21:02:50.164Z,50.04
2018-05-09T21:05:16.125Z,49.94
2018-05-09T21:07:54.213Z,49.70
2018-05-09T21:10:20.150Z,50.44
2018-05-09T21:12:46.124Z,50.75
2018-05-09T21:15:12.137Z,51.48
2018-05-09T21:17:39.118Z,50.98
2018-05-09T21:20:05.169Z,49.96
2018-05-09T21:22:31.080Z,50.77
2018-05-09T21:24:57.032Z,50.84
2018-05-09T21:27:23.011Z,50.74
2018-05-09T21:29:48.953Z,51.18
2018-05-09T21:32:14.948Z,51.57
2018-05-09T21:34:40.886Z,51.19
2018-05-09T21:37:06.880Z,51.88
2018-05-09T21:39:32.775Z,52.20
2018-05-09T21:41:58.755Z,51.73
2018-05-09T21:44:24.664Z,52.03
2018-05-09T21:46:50.640Z,52.61
2018-05-09T21:49:16.617Z,52.99
2018-05-09T21:51:42.592Z,53.63
2018-05-09T21:54:08.547Z,54.11
2018-05-09T21:56:34.459Z,54.48
2018-05-09T21:59:00.395Z,55.63
2018-05-09T22:01:26.340Z,55.34
2018-05-09T22:03:52.305Z,56.39
2018-05-09T22:06:18.271Z,56.25
2018-05-09T22:08:44.205Z,55.66
2018-05-09T22:11:10.144Z,55.66
2018-05-09T22:13:36.096Z,55.64
2018-05-09T22:16:02.103Z,55.70
2018-05-09T22:18:28.115Z,55.83
2018-05-09T22:20:54.054Z,55.56
2018-05-09T22:23:23.688Z,54.68
2018-05-09T22:25:49.651Z,52.69
2018-05-09T22:28:15.571Z,52.04
2018-05-09T22:30:41.533Z,50.87
2018-05-09T22:33:07.476Z,51.55
2018-05-09T22:35:34.323Z,51.47
2018-05-09T22:38:00.232Z,51.99
2018-05-09T22:40:30.204Z,51.58
2018-05-09T22:42:56.149Z,51.52
2018-05-09T22:45:23.217Z,51.65
2018-05-09T22:47:49.155Z,50.36
2018-05-09T22:50:18.351Z,50.43
2018-05-09T22:52:44.327Z,51.15
2018-05-09T22:55:13.286Z,50.85
2018-05-09T22:57:39.232Z,50.97
2018-05-09T23:00:09.207Z,51.11
2018-05-09T23:02:35.121Z,50.96
2018-05-09T23:05:01.117Z,51.41
2018-05-09T23:07:27.012Z,52.94
2018-05-09T23:09:52.970Z,53.67
2018-05-09T23:12:20.037Z,54.10
2018-05-09T23:14:47.637Z,54.36
2018-05-09T23:17:14.781Z,54.67
2018-05-09T23:19:41.180Z,54.15
2018-05-09T23:22:08.532Z,54.04
2018-05-09T23:24:34.500Z,54.03
2018-05-09T23:27:03.327Z,54.67
2018-05-09T23:29:29.287Z,55.40
2018-05-09T23:31:58.934Z,55.31
2018-05-09T23:34:24.859Z,55.50
2018-05-09T23:36:54.582Z,55.58
2018-05-09T23:39:20.521Z,56.18
2018-05-09T23:41:47.279Z,56.48
2018-05-09T23:44:13.221Z,56.04
2018-05-09T23:46:39.207Z,55.73
2018-05-09T23:49:05.217Z,56.00
2018-05-09T23:51:31.165Z,53.05
2018-05-09T23:54:00.569Z,56.67
2018-05-09T23:56:26.461Z,56.63
2018-05-09T23:58:55.744Z,58.00
